Aviation Digital Data Service (ADDS)

Output produced by METARs form (0740 UTC 24 October 2017)
found at http://www.aviationweather.gov/adds/metars/
 
EDDR 240720Z 21009KT 3500 -DZ BR FEW001 BKN004 10/10 Q1025 BECMG 5000
TAF EDDR 240500Z 2406/2506 21007KT 6000 SCT003 BKN010 
     TEMPO 2406/2412 2000 -DZ BR BKN002 
     TEMPO 2412/2420 4000 -DZ BR BKN004 
     TEMPO 2420/2506 2000 -DZRA BKN002
       
ETAR 240656Z 29007KT 9999 OVC008 11/11 A3026 RMK AO2A CIG 008V1500 SLP252 T01100108 $
TAF ETAR 240201Z 2402/2508 27006KT 9999 BKN007 QNH3020INS 
     TEMPO 2402/2408 BKN010 
     BECMG 2411/2412 24010G15KT 9000 -RA SCT010 BKN015 QNH3022INS 
     BECMG 2416/2417 24006KT 9999 NSW BKN010 QNH3025INS 
     BECMG 2420/2421 VRB03KT 9999 BKN007 QNH3024INS 
     BECMG 2506/2507 20007KT 9999 BKN010 QNH3020INS TX13/2413Z TN10/2403Z